createdAt,value
2018-06-03T00:00:26.739Z,99623.73
2018-06-03T00:02:54.371Z,99621.06
2018-06-03T00:05:22.068Z,99614.46
2018-06-03T00:07:49.671Z,99623.05
2018-06-03T00:10:17.321Z,99622.77
2018-06-03T00:12:45.033Z,99625.09
2018-06-03T00:15:12.617Z,99626.00
2018-06-03T00:17:40.306Z,99630.45
2018-06-03T00:20:07.987Z,99627.27
2018-06-03T00:22:35.622Z,99623.59
2018-06-03T00:25:03.285Z,99616.56
2018-06-03T00:27:30.996Z,99622.84
2018-06-03T00:29:59.203Z,99623.62
2018-06-03T00:32:26.848Z,99626.23
2018-06-03T00:34:54.545Z,99621.93
2018-06-03T00:37:22.186Z,99626.35
2018-06-03T00:39:49.855Z,99627.30
2018-06-03T00:42:17.565Z,99625.88
2018-06-03T00:44:45.161Z,99628.91
2018-06-03T00:47:12.831Z,99630.65
2018-06-03T00:49:40.554Z,99621.91
2018-06-03T00:52:08.142Z,99621.99
2018-06-03T00:54:35.803Z,99627.28
2018-06-03T00:57:11.941Z,99626.64
2018-06-03T00:59:39.555Z,99624.45
2018-06-03T01:02:07.232Z,99621.44
2018-06-03T01:04:35.158Z,99622.72
2018-06-03T01:07:02.745Z,99616.59
2018-06-03T01:09:30.382Z,99611.50
2018-06-03T01:11:58.340Z,99618.19
2018-06-03T01:14:25.927Z,99614.53
2018-06-03T01:16:53.555Z,99618.68
2018-06-03T01:19:21.714Z,99619.52
2018-06-03T01:21:49.281Z,99616.00
2018-06-03T01:24:16.913Z,99606.66
2018-06-03T01:26:44.626Z,99618.75
2018-06-03T01:29:12.255Z,99617.66
2018-06-03T01:31:39.887Z,99619.70
2018-06-03T01:34:07.594Z,99616.19
2018-06-03T01:36:35.212Z,99610.84
2018-06-03T01:39:02.906Z,99607.30
2018-06-03T01:41:31.048Z,99610.33
2018-06-03T01:43:58.638Z,99609.91
2018-06-03T01:46:26.286Z,99605.63
2018-06-03T01:48:53.995Z,99605.59
2018-06-03T01:51:21.585Z,99604.51
2018-06-03T01:53:49.253Z,99606.27
2018-06-03T01:56:17.004Z,99601.09
2018-06-03T01:58:44.597Z,99602.76
2018-06-03T02:01:12.215Z,99602.23
2018-06-03T02:03:41.131Z,99601.81
2018-06-03T02:06:08.798Z,99599.31
2018-06-03T02:08:36.437Z,99598.47
2018-06-03T02:11:04.611Z,99601.39
2018-06-03T02:13:32.225Z,99593.38
2018-06-03T02:15:59.838Z,99594.78
2018-06-03T02:18:27.762Z,99592.70
2018-06-03T02:20:55.347Z,99595.66
2018-06-03T02:23:22.999Z,99598.95
2018-06-03T02:25:50.693Z,99596.22
2018-06-03T02:28:18.330Z,99593.41
2018-06-03T02:30:46.008Z,99595.01
2018-06-03T02:33:13.669Z,99590.41
2018-06-03T02:35:41.296Z,99593.73
2018-06-03T02:38:08.962Z,99593.67
2018-06-03T02:40:36.662Z,99589.30
2018-06-03T02:43:04.265Z,99589.89
2018-06-03T02:45:31.993Z,99595.95
2018-06-03T02:47:59.632Z,99593.58
2018-06-03T02:50:27.307Z,99594.62
2018-06-03T02:52:54.913Z,99598.30
2018-06-03T02:55:22.876Z,99591.69
2018-06-03T02:57:50.447Z,99591.03
2018-06-03T03:00:18.110Z,99593.22
2018-06-03T03:02:46.072Z,99585.69
2018-06-03T03:05:13.653Z,99593.02
2018-06-03T03:07:41.278Z,99594.20
2018-06-03T03:10:08.959Z,99592.20
2018-06-03T03:12:36.582Z,99587.42
2018-06-03T03:15:04.319Z,99581.19
2018-06-03T03:17:31.962Z,99584.16
2018-06-03T03:19:59.562Z,99581.31
2018-06-03T03:22:27.238Z,99585.48
2018-06-03T03:24:55.207Z,99582.66
2018-06-03T03:27:22.797Z,99591.33
2018-06-03T03:29:50.376Z,99592.45
2018-06-03T03:32:18.374Z,99592.07
2018-06-03T03:34:45.945Z,99593.90
2018-06-03T03:37:13.578Z,99587.87
2018-06-03T03:39:41.816Z,99587.27
2018-06-03T03:42:09.534Z,99585.78
2018-06-03T03:44:37.193Z,99584.16
2018-06-03T03:47:05.142Z,99591.34
2018-06-03T03:49:32.761Z,99587.77
2018-06-03T03:52:00.356Z,99587.52
2018-06-03T03:54:28.320Z,99589.77
2018-06-03T03:56:55.909Z,99592.80
2018-06-03T03:59:23.566Z,99589.34
2018-06-03T04:01:51.244Z,99602.11
2018-06-03T04:04:18.874Z,99589.33
2018-06-03T04:06:46.507Z,99593.46
2018-06-03T04:09:14.339Z,99596.38
2018-06-03T04:11:42.050Z,99593.16
2018-06-03T04:14:09.702Z,99591.81
2018-06-03T04:16:37.653Z,99591.77
2018-06-03T04:19:05.227Z,99584.63
2018-06-03T04:21:32.891Z,99586.97
2018-06-03T04:24:00.905Z,99588.33
2018-06-03T04:26:28.631Z,99593.79
2018-06-03T04:28:56.245Z,99586.92
2018-06-03T04:31:24.024Z,99589.06
2018-06-03T04:33:51.608Z,99588.17
2018-06-03T04:36:19.237Z,99584.80
2018-06-03T04:38:47.219Z,99581.55
2018-06-03T04:41:14.883Z,99585.88
2018-06-03T04:43:42.423Z,99584.45
2018-06-03T04:46:10.156Z,99585.82
2018-06-03T04:48:37.740Z,99575.97
2018-06-03T04:51:05.429Z,99577.26
2018-06-03T04:53:33.085Z,99579.65
2018-06-03T04:56:00.717Z,99578.30
2018-06-03T04:58:28.414Z,99573.41
2018-06-03T05:00:56.087Z,99571.00
2018-06-03T05:03:23.724Z,99571.55
2018-06-03T05:05:51.356Z,99569.16
2018-06-03T05:08:19.082Z,99568.60
2018-06-03T05:10:46.698Z,99574.61
2018-06-03T05:13:14.395Z,99569.27
2018-06-03T05:15:42.515Z,99569.02
2018-06-03T05:18:10.121Z,99571.89
2018-06-03T05:20:37.763Z,99569.30
2018-06-03T05:23:05.694Z,99575.50
2018-06-03T05:25:33.286Z,99577.56
2018-06-03T05:28:00.917Z,99568.32
2018-06-03T05:30:29.096Z,99571.17
2018-06-03T05:32:56.679Z,99574.67
2018-06-03T05:35:24.284Z,99574.47
2018-06-03T05:37:52.286Z,99569.97
2018-06-03T05:40:19.863Z,99573.84
2018-06-03T05:42:47.582Z,99574.94
2018-06-03T05:45:15.214Z,99567.55
2018-06-03T05:47:42.815Z,99567.69
2018-06-03T05:50:10.479Z,99561.20
2018-06-03T05:52:38.222Z,99562.59
2018-06-03T05:55:05.812Z,99565.48
2018-06-03T05:57:33.471Z,99564.84
2018-06-03T06:00:01.669Z,99564.91
2018-06-03T06:02:29.411Z,99561.12
2018-06-03T06:04:57.021Z,99563.83
2018-06-03T06:07:24.744Z,99564.64
2018-06-03T06:09:52.352Z,99558.05
2018-06-03T06:12:20.014Z,99560.00
2018-06-03T06:14:48.202Z,99556.94
2018-06-03T06:17:15.779Z,99560.36
2018-06-03T06:19:43.361Z,99559.52
2018-06-03T06:22:11.629Z,99557.91
2018-06-03T06:24:39.555Z,99560.20
2018-06-03T06:27:07.223Z,99553.66
2018-06-03T06:29:34.906Z,99555.73
2018-06-03T06:32:02.538Z,99550.84
2018-06-03T06:34:30.220Z,99552.47
2018-06-03T06:36:57.907Z,99546.23
2018-06-03T06:39:25.496Z,99547.80
2018-06-03T06:41:53.151Z,99542.91
2018-06-03T06:44:20.839Z,99549.56
2018-06-03T06:46:48.469Z,99545.30
2018-06-03T06:49:16.124Z,99538.97
2018-06-03T06:51:44.082Z,99538.22
2018-06-03T06:54:11.661Z,99534.58
2018-06-03T06:56:39.314Z,99531.52
2018-06-03T06:59:07.100Z,99525.70
2018-06-03T07:01:34.760Z,99526.95
2018-06-03T07:04:02.408Z,99521.58
2018-06-03T07:06:30.113Z,99522.27
2018-06-03T07:08:57.865Z,99526.75
2018-06-03T07:11:25.440Z,99518.52
2018-06-03T07:13:53.583Z,99520.45
2018-06-03T07:16:21.179Z,99519.44
2018-06-03T07:18:48.781Z,99514.81
2018-06-03T07:21:16.685Z,99508.30
2018-06-03T07:23:44.467Z,99506.59
2018-06-03T07:26:12.173Z,99499.80
2018-06-03T07:28:40.017Z,99497.46
2018-06-03T07:31:07.729Z,99503.47
2018-06-03T07:33:35.440Z,99490.57
2018-06-03T07:36:03.324Z,99499.14
2018-06-03T07:38:30.909Z,99496.17
2018-06-03T07:40:58.573Z,99495.52
2018-06-03T07:43:26.393Z,99499.96
2018-06-03T07:45:54.081Z,99498.98
2018-06-03T07:48:21.712Z,99497.81
2018-06-03T07:50:49.553Z,99491.88
2018-06-03T07:53:17.240Z,99484.94
2018-06-03T07:55:44.885Z,99490.63
2018-06-03T07:58:12.907Z,99487.97
2018-06-03T08:00:40.500Z,99488.67
2018-06-03T08:03:08.121Z,99485.01
2018-06-03T08:05:36.055Z,99478.86
2018-06-03T08:08:03.704Z,99477.78
2018-06-03T08:10:31.399Z,99473.82
2018-06-03T08:12:59.030Z,99474.05
2018-06-03T08:15:26.622Z,99477.50
2018-06-03T08:17:54.239Z,99471.58
2018-06-03T08:20:22.372Z,99469.37
2018-06-03T08:22:50.074Z,99468.17
2018-06-03T08:25:17.851Z,99459.56
2018-06-03T08:27:45.800Z,99454.58
2018-06-03T08:30:13.661Z,99449.91
2018-06-03T08:32:41.509Z,99444.98
2018-06-03T08:35:09.616Z,99440.70
2018-06-03T08:37:37.212Z,99439.30
2018-06-03T08:40:04.827Z,99439.41
2018-06-03T08:42:32.985Z,99426.89
2018-06-03T08:45:00.563Z,99428.44
2018-06-03T08:47:28.237Z,99426.20
2018-06-03T08:49:55.914Z,99419.80
2018-06-03T08:52:23.515Z,99413.91
2018-06-03T08:54:51.220Z,99410.64
2018-06-03T08:57:19.375Z,99411.28
2018-06-03T08:59:46.971Z,99409.28
2018-06-03T09:02:14.613Z,99406.34
2018-06-03T09:04:42.466Z,99407.21
2018-06-03T09:07:10.105Z,99398.11
2018-06-03T09:09:37.720Z,99398.06
2018-06-03T09:12:05.462Z,99394.08
2018-06-03T09:14:33.080Z,99390.72
2018-06-03T09:17:00.747Z,99387.47
2018-06-03T09:19:28.570Z,99387.02
2018-06-03T09:21:56.243Z,99382.63
2018-06-03T09:24:23.911Z,99377.30
2018-06-03T09:26:51.637Z,99372.81
2018-06-03T09:29:19.236Z,99376.00
2018-06-03T09:31:46.888Z,99375.13
2018-06-03T09:34:14.564Z,99371.08
2018-06-03T09:36:42.213Z,99379.23
2018-06-03T09:39:09.891Z,99380.05
2018-06-03T09:41:37.598Z,99382.89
2018-06-03T09:44:05.244Z,99382.94
2018-06-03T09:46:33.000Z,99382.33
2018-06-03T09:49:01.038Z,99377.00
2018-06-03T09:51:29.315Z,99381.34
2018-06-03T09:53:56.900Z,99377.45
2018-06-03T09:56:24.588Z,99371.50
2018-06-03T09:58:52.187Z,99363.74
2018-06-03T10:01:19.832Z,99366.13
2018-06-03T10:03:47.708Z,99358.82
2018-06-03T10:06:15.328Z,99360.51
2018-06-03T10:09:12.469Z,99351.67
2018-06-03T10:11:41.572Z,99339.02
2018-06-03T10:14:10.708Z,99343.34
2018-06-03T10:16:40.115Z,99352.52
2018-06-03T10:19:09.051Z,99332.02
2018-06-03T10:21:38.080Z,99339.22
2018-06-03T10:24:07.032Z,99324.96
2018-06-03T10:26:36.296Z,99315.42
2018-06-03T10:29:05.409Z,99316.34
2018-06-03T10:31:34.518Z,99304.34
2018-06-03T10:34:03.710Z,99304.44
2018-06-03T10:36:32.802Z,99300.52
2018-06-03T10:39:02.333Z,99299.64
2018-06-03T10:41:31.219Z,99291.95
2018-06-03T10:44:00.251Z,99292.31
2018-06-03T10:46:29.319Z,99298.27
2018-06-03T10:48:58.318Z,99292.87
2018-06-03T10:51:27.159Z,99284.02
2018-06-03T10:53:56.461Z,99293.80
2018-06-03T10:56:25.343Z,99290.09
2018-06-03T10:58:54.312Z,99290.33
2018-06-03T11:01:24.360Z,99287.20
2018-06-03T11:03:53.351Z,99275.34
2018-06-03T11:06:23.390Z,99270.56
2018-06-03T11:08:53.293Z,99263.59
2018-06-03T11:11:22.212Z,99270.56
2018-06-03T11:13:51.375Z,99275.56
2018-06-03T11:16:20.564Z,99269.91
2018-06-03T11:18:49.602Z,99280.88
2018-06-03T11:21:18.682Z,99278.00
2018-06-03T11:23:47.711Z,99281.48
2018-06-03T11:26:17.503Z,99280.19
2018-06-03T11:28:47.392Z,99279.89
2018-06-03T11:31:16.741Z,99278.91
2018-06-03T11:33:45.637Z,99281.11
2018-06-03T11:36:14.514Z,99289.45
2018-06-03T11:38:43.818Z,99284.03
2018-06-03T11:41:12.796Z,99285.35
2018-06-03T11:43:41.913Z,99284.34
2018-06-03T11:46:10.963Z,99289.57
2018-06-03T11:48:40.842Z,99271.86
2018-06-03T11:51:09.780Z,99267.47
2018-06-03T11:53:39.416Z,99271.16
2018-06-03T11:56:08.360Z,99265.98
2018-06-03T11:58:54.381Z,99262.55
2018-06-03T12:01:23.806Z,99253.53
2018-06-03T12:03:52.992Z,99253.02
2018-06-03T12:06:22.284Z,99248.48
2018-06-03T12:08:51.195Z,99260.25
2018-06-03T12:11:20.249Z,99253.32
2018-06-03T12:13:49.547Z,99249.98
2018-06-03T12:16:18.522Z,99243.86
2018-06-03T12:18:47.525Z,99242.02
2018-06-03T12:21:17.035Z,99231.83
2018-06-03T12:23:46.034Z,99229.76
2018-06-03T12:26:15.143Z,99220.84
2018-06-03T12:28:44.313Z,99213.25
2018-06-03T12:31:13.371Z,99211.42
2018-06-03T12:33:42.654Z,99208.88
2018-06-03T12:36:12.058Z,99204.38
2018-06-03T12:38:41.421Z,99198.98
2018-06-03T12:41:10.451Z,99199.78
2018-06-03T12:43:40.003Z,99195.86
2018-06-03T12:46:09.039Z,99196.59
2018-06-03T12:48:38.863Z,99201.37
2018-06-03T12:51:08.491Z,99195.78
2018-06-03T13:00:22.792Z,99175.09
2018-06-03T13:02:51.754Z,99178.36
2018-06-03T13:05:20.837Z,99177.09
2018-06-03T13:07:50.295Z,99164.34
2018-06-03T13:10:19.271Z,99159.95
2018-06-03T13:12:48.413Z,99154.30
2018-06-03T13:15:17.763Z,99153.76
2018-06-03T13:17:46.675Z,99150.16
2018-06-03T13:20:15.662Z,99144.14
2018-06-03T13:22:45.090Z,99143.17
2018-06-03T13:25:14.183Z,99136.44
2018-06-03T13:27:43.396Z,99138.44
2018-06-03T13:30:13.158Z,99129.36
2018-06-03T13:32:42.300Z,99131.22
2018-06-03T13:35:12.090Z,99134.68
2018-06-03T13:37:41.490Z,99130.05
2018-06-03T13:40:10.623Z,99123.90
2018-06-03T13:42:39.620Z,99121.78
2018-06-03T13:45:08.924Z,99124.89
2018-06-03T13:47:37.966Z,99124.31
2018-06-03T13:50:06.901Z,99134.17
2018-06-03T13:52:35.912Z,99117.31
2018-06-03T13:55:04.926Z,99115.70
2018-06-03T13:57:33.875Z,99118.66
2018-06-03T14:00:03.265Z,99110.64
2018-06-03T14:02:32.142Z,99099.59
2018-06-03T14:05:01.196Z,99090.20
2018-06-03T14:07:30.235Z,99088.80
2018-06-03T14:09:59.321Z,99096.53
2018-06-03T14:12:28.363Z,99097.41
2018-06-03T14:14:57.637Z,99101.00
2018-06-03T14:17:26.545Z,99101.27
2018-06-03T14:19:55.481Z,99096.11
2018-06-03T14:22:24.727Z,99104.64
2018-06-03T14:24:53.741Z,99097.03
2018-06-03T14:27:22.843Z,99093.66
2018-06-03T14:29:51.928Z,99094.66
2018-06-03T14:32:20.992Z,99095.02
2018-06-03T14:34:49.983Z,99098.06
2018-06-03T14:37:19.420Z,99106.95
2018-06-03T14:39:48.289Z,99107.56
2018-06-03T14:42:17.280Z,99108.57
2018-06-03T14:44:46.220Z,99107.55
2018-06-03T14:47:15.167Z,99108.84
2018-06-03T14:49:44.116Z,99099.17
2018-06-03T14:52:13.506Z,99095.50
2018-06-03T14:54:42.582Z,99089.09
2018-06-03T14:57:11.663Z,99090.45
2018-06-03T14:59:40.973Z,99093.13
2018-06-03T15:02:10.025Z,99098.94
2018-06-03T15:04:38.993Z,99096.02
2018-06-03T15:07:08.302Z,99089.39
2018-06-03T15:09:37.383Z,99086.48
2018-06-03T15:12:06.401Z,99090.86
2018-06-03T15:14:35.796Z,99091.10
2018-06-03T15:17:05.806Z,99103.88
2018-06-03T15:19:34.881Z,99109.66
2018-06-03T15:22:04.157Z,99120.55
2018-06-03T15:24:33.204Z,99120.59
2018-06-03T15:27:02.273Z,99130.33
2018-06-03T15:29:31.235Z,99134.84
2018-06-03T15:32:00.043Z,99141.68
2018-06-03T15:34:29.148Z,99136.40
2018-06-03T15:36:58.147Z,99140.09
2018-06-03T15:39:27.725Z,99138.73
2018-06-03T15:41:56.720Z,99126.52
2018-06-03T15:44:25.640Z,99139.98
2018-06-03T15:46:54.747Z,99135.17
2018-06-03T15:49:23.921Z,99148.15
2018-06-03T15:51:53.893Z,99136.94
2018-06-03T15:54:22.813Z,99133.70
2018-06-03T15:56:51.759Z,99129.83
2018-06-03T15:59:21.135Z,99121.89
2018-06-03T16:01:50.252Z,99124.72
2018-06-03T16:04:19.274Z,99124.92
2018-06-03T16:06:48.616Z,99117.47
2018-06-03T16:09:17.692Z,99115.71
2018-06-03T16:11:46.733Z,99114.09
2018-06-03T16:14:16.078Z,99114.91
2018-06-03T16:16:45.073Z,99118.52
2018-06-03T16:19:14.007Z,99117.13
2018-06-03T16:21:43.314Z,99110.95
2018-06-03T16:24:12.325Z,99107.63
2018-06-03T16:26:41.316Z,99110.20
2018-06-03T16:29:10.439Z,99108.59
2018-06-03T16:31:39.515Z,99106.34
2018-06-03T16:34:08.586Z,99107.84
2018-06-03T16:36:37.808Z,99104.42
2018-06-03T16:39:08.029Z,99104.20
2018-06-03T16:41:37.369Z,99104.66
2018-06-03T16:44:06.737Z,99110.83
2018-06-03T16:46:35.819Z,99118.88
2018-06-03T16:49:04.894Z,99123.22
2018-06-03T16:51:33.892Z,99126.34
2018-06-03T16:54:02.906Z,99128.25
2018-06-03T16:56:31.991Z,99134.36
2018-06-03T17:05:46.651Z,99139.30
2018-06-03T17:08:15.666Z,99141.75
2018-06-03T17:10:44.679Z,99142.70
2018-06-03T17:13:13.716Z,99142.17
2018-06-03T17:15:42.771Z,99141.34
2018-06-03T17:18:11.833Z,99144.91
2018-06-03T17:20:40.793Z,99143.33
2018-06-03T17:23:09.876Z,99146.73
2018-06-03T17:25:38.940Z,99147.66
2018-06-03T17:28:08.090Z,99144.50
2018-06-03T17:30:37.044Z,99142.48
2018-06-03T17:33:06.112Z,99137.13
2018-06-03T17:35:35.443Z,99134.80
2018-06-03T17:38:04.407Z,99137.55
2018-06-03T17:41:36.124Z,99125.45
2018-06-03T17:44:05.344Z,99121.28
2018-06-03T17:46:34.666Z,99113.71
2018-06-03T17:49:03.779Z,99112.45
2018-06-03T17:51:33.796Z,99115.59
2018-06-03T17:54:02.877Z,99114.85
2018-06-03T17:56:32.336Z,99114.25
2018-06-03T17:59:01.501Z,99103.44
2018-06-03T18:01:30.509Z,99105.52
2018-06-03T18:03:59.463Z,99106.41
2018-06-03T18:06:28.571Z,99104.97
2018-06-03T18:08:57.864Z,99108.60
2018-06-03T18:11:27.216Z,99101.95
2018-06-03T18:13:56.208Z,99110.20
2018-06-03T18:16:25.292Z,99111.16
2018-06-03T18:18:55.326Z,99109.28
2018-06-03T18:21:24.394Z,99117.36
2018-06-03T18:23:53.358Z,99110.58
2018-06-03T18:26:22.284Z,99112.23
2018-06-03T18:28:51.358Z,99109.05
2018-06-03T18:31:20.534Z,99114.42
2018-06-03T18:33:49.618Z,99117.70
2018-06-03T18:36:18.637Z,99115.48
2018-06-03T18:38:47.855Z,99120.62
2018-06-03T18:41:17.384Z,99129.44
2018-06-03T18:43:46.277Z,99133.25
2018-06-03T18:46:15.260Z,99134.82
2018-06-03T18:48:44.405Z,99147.87
2018-06-03T18:51:13.359Z,99146.27
2018-06-03T18:53:42.329Z,99153.80
2018-06-03T18:56:11.582Z,99156.63
2018-06-03T18:58:40.899Z,99161.05
2018-06-03T19:01:09.937Z,99162.44
2018-06-03T19:03:39.213Z,99156.62
2018-06-03T19:06:08.080Z,99157.14
2018-06-03T19:08:37.177Z,99153.33
2018-06-03T19:11:06.198Z,99151.55
2018-06-03T19:13:35.354Z,99153.23
2018-06-03T19:16:04.289Z,99151.08
2018-06-03T19:18:33.206Z,99146.61
2018-06-03T19:21:02.227Z,99148.65
2018-06-03T19:23:31.213Z,99145.15
2018-06-03T19:26:00.331Z,99142.64
2018-06-03T19:28:29.405Z,99151.10
2018-06-03T19:30:58.503Z,99141.69
2018-06-03T19:33:27.888Z,99140.19
2018-06-03T19:35:56.814Z,99137.52
2018-06-03T19:38:25.636Z,99137.38
2018-06-03T19:40:55.304Z,99137.91
2018-06-03T19:43:24.149Z,99134.55
2018-06-03T19:45:53.214Z,99135.09
2018-06-03T19:48:22.334Z,99144.20
2018-06-03T19:50:51.467Z,99142.02
2018-06-03T19:53:20.502Z,99135.97
2018-06-03T19:55:49.665Z,99134.83
2018-06-03T19:58:18.743Z,99127.75
2018-06-03T20:00:47.848Z,99131.78
2018-06-03T20:03:17.468Z,99127.24
2018-06-03T20:05:46.386Z,99126.93
2018-06-03T20:08:15.532Z,99130.63
2018-06-03T20:10:44.939Z,99128.11
2018-06-03T20:13:14.872Z,99127.94
2018-06-03T20:15:43.777Z,99125.93
2018-06-03T20:18:13.155Z,99128.16
2018-06-03T20:20:42.169Z,99131.18
2018-06-03T20:23:11.268Z,99124.61
2018-06-03T20:25:40.715Z,99134.89
2018-06-03T20:28:09.653Z,99131.69
2018-06-03T20:30:38.712Z,99139.92
2018-06-03T20:33:07.693Z,99146.80
2018-06-03T20:35:36.764Z,99147.63
2018-06-03T20:38:06.024Z,99151.67
2018-06-03T20:40:35.140Z,99151.99
2018-06-03T20:43:04.312Z,99152.66
2018-06-03T20:45:33.168Z,99154.34
2018-06-03T20:48:02.186Z,99146.11
2018-06-03T20:50:31.236Z,99146.59
2018-06-03T20:53:00.163Z,99156.52
2018-06-03T20:55:29.623Z,99153.33
2018-06-03T20:57:58.492Z,99157.33
2018-06-03T21:00:27.587Z,99155.66
2018-06-03T21:02:56.654Z,99157.16
2018-06-03T21:05:25.736Z,99154.81
2018-06-03T21:07:54.787Z,99154.98
2018-06-03T21:10:23.890Z,99151.78
2018-06-03T21:12:52.972Z,99143.88
2018-06-03T21:15:22.005Z,99147.08
2018-06-03T21:17:51.186Z,99143.52
2018-06-03T21:20:20.240Z,99148.09
2018-06-03T21:22:49.232Z,99142.02
2018-06-03T21:25:18.736Z,99140.34
2018-06-03T21:27:47.791Z,99141.02
2018-06-03T21:30:16.802Z,99144.36
2018-06-03T21:32:45.818Z,99143.85
2018-06-03T21:35:14.881Z,99146.23
2018-06-03T21:37:43.801Z,99144.72
2018-06-03T21:40:12.973Z,99148.78
2018-06-03T21:42:42.041Z,99146.59
2018-06-03T21:45:11.080Z,99136.50
2018-06-03T21:47:40.560Z,99144.59
2018-06-03T21:50:09.409Z,99142.57
2018-06-03T21:52:38.431Z,99139.41
2018-06-03T21:55:07.828Z,99132.66
2018-06-03T21:57:36.808Z,99129.98
2018-06-03T22:00:06.767Z,99130.17
2018-06-03T22:02:35.925Z,99128.67
2018-06-03T22:05:05.090Z,99129.83
2018-06-03T22:07:34.199Z,99118.92
2018-06-03T22:10:03.387Z,99117.22
2018-06-03T22:12:32.480Z,99119.89
2018-06-03T22:15:01.497Z,99113.34
2018-06-03T22:17:30.753Z,99108.11
2018-06-03T22:21:28.941Z,99117.03
2018-06-03T22:23:58.416Z,99115.02
2018-06-03T22:26:27.485Z,99115.52
2018-06-03T22:28:56.523Z,99114.02
2018-06-03T22:31:25.787Z,99115.36
2018-06-03T22:33:54.924Z,99110.95
2018-06-03T22:36:24.065Z,99114.68
2018-06-03T22:38:53.454Z,99118.36
2018-06-03T22:41:22.596Z,99113.16
2018-06-03T22:43:51.662Z,99114.16
2018-06-03T22:46:20.989Z,99108.94
2018-06-03T22:48:50.012Z,99114.66
2018-06-03T22:51:19.194Z,99104.92
2018-06-03T22:53:48.377Z,99111.67
2018-06-03T22:56:17.885Z,99113.50
2018-06-03T22:59:49.486Z,99107.78
2018-06-03T23:02:18.542Z,99103.91
2018-06-03T23:04:47.963Z,99100.55
2018-06-03T23:07:16.999Z,99102.21
2018-06-03T23:09:46.085Z,99097.35
2018-06-03T23:12:15.230Z,99093.84
2018-06-03T23:14:44.228Z,99092.81
2018-06-03T23:17:13.618Z,99080.69
2018-06-03T23:19:42.686Z,99089.27
2018-06-03T23:22:11.931Z,99086.25
2018-06-03T23:24:41.065Z,99085.20
2018-06-03T23:27:10.020Z,99078.30
2018-06-03T23:29:39.292Z,99078.65
2018-06-03T23:32:08.403Z,99082.36
2018-06-03T23:34:37.387Z,99078.33
2018-06-03T23:37:06.737Z,99085.05
2018-06-03T23:39:35.780Z,99077.63
2018-06-03T23:42:04.928Z,99082.52
2018-06-03T23:44:34.131Z,99080.66
2018-06-03T23:47:03.271Z,99078.46
2018-06-03T23:49:32.416Z,99077.97
2018-06-03T23:52:01.529Z,99087.05
2018-06-03T23:54:30.869Z,99082.00
2018-06-03T23:56:59.847Z,99091.05
2018-06-03T23:59:28.969Z,99086.50
